createdAt,value
2023-11-04T00:02:13.046Z,4.32
2023-11-04T00:04:41.830Z,1.88
2023-11-04T00:07:10.156Z,2.45
2023-11-04T00:09:46.681Z,2.58
2023-11-04T00:12:20.080Z,2.13
2023-11-04T00:14:48.546Z,3.03
2023-11-04T00:17:16.773Z,2.05
2023-11-04T00:19:45.184Z,2.92
2023-11-04T00:22:13.846Z,3.15
2023-11-04T00:27:10.501Z,2.75
2023-11-04T00:29:38.975Z,4.30
2023-11-04T00:32:07.907Z,2.70
2023-11-04T00:34:36.364Z,3.00
2023-11-04T00:37:04.912Z,3.33
2023-11-04T00:39:33.314Z,4.32
2023-11-04T00:42:01.671Z,3.50
2023-11-04T00:44:30.859Z,4.78
2023-11-04T00:46:59.109Z,3.33
2023-11-04T00:49:27.643Z,3.78
2023-11-04T00:54:24.301Z,2.78
2023-11-04T00:56:52.561Z,3.17
2023-11-04T00:59:20.975Z,2.33
2023-11-04T01:01:49.378Z,2.88
2023-11-04T01:04:17.833Z,4.47
2023-11-04T01:06:46.241Z,3.38
2023-11-04T01:11:44.131Z,3.00
2023-11-04T01:14:12.734Z,3.00
2023-11-04T01:16:41.035Z,1.98
2023-11-04T01:19:09.703Z,2.47
2023-11-04T01:24:06.945Z,2.25
2023-11-04T01:26:35.237Z,3.92
2023-11-04T01:29:03.695Z,3.20
2023-11-04T01:31:31.956Z,2.05
2023-11-04T01:34:00.414Z,2.80
2023-11-04T01:36:28.805Z,2.33
2023-11-04T01:38:57.204Z,2.67
2023-11-04T01:41:25.738Z,2.85
2023-11-04T01:43:54.175Z,1.48
2023-11-04T01:46:24.630Z,1.92
2023-11-04T01:48:54.206Z,2.88
2023-11-04T01:51:22.919Z,2.95
2023-11-04T01:53:54.024Z,2.83
2023-11-04T01:56:35.674Z,4.25
2023-11-04T01:59:05.447Z,3.60
2023-11-04T02:01:34.375Z,2.88
2023-11-04T02:06:34.028Z,5.90
2023-11-04T02:09:02.538Z,2.55
2023-11-04T02:11:32.062Z,2.15
2023-11-04T02:14:01.008Z,2.72
2023-11-04T02:18:57.459Z,2.00
2023-11-04T02:21:26.290Z,2.15
2023-11-04T02:23:54.729Z,1.20
2023-11-04T02:26:23.481Z,3.03
2023-11-04T02:28:51.941Z,4.05
2023-11-04T02:31:20.298Z,1.88
2023-11-04T02:33:48.876Z,3.97
2023-11-04T02:38:45.612Z,4.53
2023-11-04T02:41:13.895Z,2.63
2023-11-04T02:43:42.516Z,2.92
2023-11-04T02:48:39.246Z,2.03
2023-11-04T02:51:07.889Z,1.40
2023-11-04T02:56:04.539Z,1.50
2023-11-04T02:58:32.989Z,2.80
2023-11-04T03:01:01.714Z,1.42
2023-11-04T03:03:30.268Z,2.20
2023-11-04T03:05:58.799Z,1.58
2023-11-04T03:08:27.487Z,1.83
2023-11-04T03:10:56.180Z,2.28
2023-11-04T03:13:24.516Z,2.10
2023-11-04T03:15:53.165Z,1.75
2023-11-04T03:18:21.589Z,2.63
2023-11-04T03:20:50.015Z,1.63
2023-11-04T03:23:18.623Z,2.63
2023-11-04T03:25:47.063Z,2.20
2023-11-04T03:28:15.625Z,2.60
2023-11-04T03:30:44.116Z,1.63
2023-11-04T03:33:12.723Z,1.05
2023-11-04T03:35:41.001Z,3.08
2023-11-04T03:38:09.398Z,1.95
2023-11-04T03:40:37.672Z,1.15
2023-11-04T03:43:06.030Z,1.45
2023-11-04T03:45:34.408Z,1.20
2023-11-04T03:48:02.848Z,1.30
2023-11-04T03:50:31.406Z,1.20
2023-11-04T03:52:59.748Z,1.65
2023-11-04T03:55:28.098Z,1.77
2023-11-04T03:57:56.543Z,1.75
2023-11-04T04:00:24.962Z,0.98
2023-11-04T04:02:53.566Z,2.03
2023-11-04T04:05:21.909Z,2.22
2023-11-04T04:07:50.436Z,1.40
2023-11-04T04:10:19.339Z,2.20
2023-11-04T04:12:48.991Z,1.70
2023-11-04T04:15:17.675Z,2.17
2023-11-04T04:17:46.023Z,0.98
2023-11-04T04:20:17.802Z,0.98
2023-11-04T04:22:46.245Z,1.48
2023-11-04T04:25:14.741Z,0.75
2023-11-04T04:27:43.283Z,2.17
2023-11-04T04:30:11.958Z,2.05
2023-11-04T04:35:08.746Z,1.35
2023-11-04T04:37:37.114Z,2.38
2023-11-04T04:40:06.162Z,1.08
2023-11-04T04:42:34.750Z,2.42
2023-11-04T04:45:03.041Z,2.08
2023-11-04T04:47:31.386Z,1.17
2023-11-04T04:49:59.788Z,0.80
2023-11-04T04:52:28.117Z,1.30
2023-11-04T04:54:56.562Z,2.45
2023-11-04T04:57:24.945Z,0.68
2023-11-04T04:59:53.437Z,1.35
2023-11-04T05:02:21.904Z,1.27
2023-11-04T05:04:50.776Z,2.55
2023-11-04T05:09:50.191Z,0.98
2023-11-04T05:12:18.521Z,1.20
2023-11-04T05:14:46.967Z,3.08
2023-11-04T05:17:15.325Z,2.33
2023-11-04T05:19:43.732Z,2.38
2023-11-04T05:22:12.203Z,0.90
2023-11-04T05:24:40.621Z,1.83
2023-11-04T05:27:08.981Z,2.28
2023-11-04T05:29:37.246Z,1.95
2023-11-04T05:32:05.949Z,3.35
2023-11-04T05:37:02.513Z,1.45
2023-11-04T05:39:30.940Z,1.83
2023-11-04T05:41:59.326Z,1.40
2023-11-04T05:44:27.705Z,2.83
2023-11-04T05:46:55.909Z,2.88
2023-11-04T05:49:24.365Z,1.95
2023-11-04T05:51:52.852Z,1.80
2023-11-04T05:54:21.320Z,2.30
2023-11-04T05:56:49.698Z,1.85
2023-11-04T05:59:18.008Z,1.65
2023-11-04T06:01:46.467Z,1.80
2023-11-04T06:04:14.913Z,1.15
2023-11-04T06:06:43.341Z,0.82
2023-11-04T06:09:11.874Z,2.15
2023-11-04T06:11:40.604Z,2.75
2023-11-04T06:14:09.341Z,1.40
2023-11-04T06:16:37.711Z,1.70
2023-11-04T06:19:06.343Z,0.77
2023-11-04T06:21:35.002Z,1.88
2023-11-04T06:24:03.383Z,2.75
2023-11-04T06:26:31.813Z,1.55
2023-11-04T06:29:00.291Z,0.95
2023-11-04T06:31:28.655Z,1.83
2023-11-04T06:33:57.108Z,1.73
2023-11-04T06:36:25.780Z,2.03
2023-11-04T06:38:54.263Z,2.65
2023-11-04T06:41:22.684Z,8.45
2023-11-04T06:43:51.300Z,3.83
2023-11-04T06:46:19.612Z,9.57
2023-11-04T06:48:48.314Z,4.90
2023-11-04T06:51:20.830Z,15.25
2023-11-04T06:53:49.668Z,9.27
2023-11-04T06:58:46.040Z,9.35
2023-11-04T07:01:17.512Z,6.35
2023-11-04T07:03:46.099Z,7.40
2023-11-04T07:06:16.069Z,7.22
2023-11-04T07:08:45.377Z,2.45
2023-11-04T07:11:17.965Z,3.17
2023-11-04T07:13:46.726Z,4.25
2023-11-04T07:21:12.212Z,5.97
2023-11-04T07:23:40.632Z,5.53
2023-11-04T07:28:38.109Z,4.50
2023-11-04T07:31:07.845Z,3.92
2023-11-04T07:33:36.426Z,2.95
2023-11-04T07:36:05.231Z,2.42
2023-11-04T07:38:33.777Z,3.05
2023-11-04T07:41:01.946Z,1.73
2023-11-04T07:43:30.401Z,4.05
2023-11-04T07:45:58.852Z,5.13
2023-11-04T07:48:27.141Z,4.80
2023-11-04T07:50:55.793Z,3.30
2023-11-04T07:53:24.257Z,3.30
2023-11-04T07:55:52.757Z,3.90
2023-11-04T07:58:21.337Z,5.43
2023-11-04T08:00:50.035Z,4.38
2023-11-04T08:03:18.665Z,3.00
2023-11-04T08:08:15.504Z,3.67
2023-11-04T08:10:43.766Z,2.83
2023-11-04T08:13:12.144Z,3.28
2023-11-04T08:15:40.698Z,2.10
2023-11-04T08:18:09.379Z,2.00
2023-11-04T08:20:37.937Z,3.22
2023-11-04T08:23:07.556Z,2.65
2023-11-04T08:25:36.052Z,4.25
2023-11-04T08:28:04.627Z,4.13
2023-11-04T08:33:01.942Z,3.88
2023-11-04T08:35:30.175Z,3.10
2023-11-04T08:37:59.027Z,3.55
2023-11-04T08:40:29.408Z,3.58
2023-11-04T08:42:57.953Z,3.97
2023-11-04T08:45:26.457Z,6.10
2023-11-04T08:47:54.922Z,3.97
2023-11-04T08:50:23.472Z,5.15
2023-11-04T08:52:51.961Z,4.85
2023-11-04T08:55:20.318Z,2.17
2023-11-04T08:57:49.135Z,6.18
2023-11-04T09:00:18.026Z,4.68
2023-11-04T09:05:17.426Z,4.07
2023-11-04T09:07:50.919Z,3.08
2023-11-04T09:12:48.487Z,2.95
2023-11-04T09:15:17.184Z,2.88
2023-11-04T09:17:45.709Z,3.92
2023-11-04T09:20:14.304Z,3.30
2023-11-04T09:22:42.838Z,2.63
2023-11-04T09:25:11.529Z,2.20
2023-11-04T09:27:39.980Z,3.50
2023-11-04T09:30:09.064Z,3.65
2023-11-04T09:32:37.518Z,2.55
2023-11-04T09:35:06.250Z,2.20
2023-11-04T09:37:35.141Z,3.15
2023-11-04T09:42:32.738Z,3.88
2023-11-04T09:45:01.056Z,3.75
2023-11-04T09:47:29.619Z,2.50
2023-11-04T09:49:57.914Z,3.30
2023-11-04T09:52:28.688Z,4.65
2023-11-04T09:54:58.881Z,4.30
2023-11-04T09:57:28.292Z,3.40
2023-11-04T09:59:57.096Z,3.53
2023-11-04T10:02:25.433Z,2.78
2023-11-04T10:04:53.881Z,4.50
2023-11-04T10:07:23.106Z,2.75
2023-11-04T10:09:51.612Z,2.67
2023-11-04T10:12:20.394Z,4.15
2023-11-04T10:14:50.046Z,1.73
2023-11-04T10:17:18.450Z,4.90
2023-11-04T10:19:46.860Z,3.05
2023-11-04T10:22:15.382Z,2.95
2023-11-04T10:24:43.800Z,2.95
2023-11-04T10:27:12.341Z,2.80
2023-11-04T10:29:40.838Z,3.72
2023-11-04T10:32:13.230Z,3.83
2023-11-04T10:34:47.242Z,3.20
2023-11-04T10:37:20.091Z,3.90
2023-11-04T10:39:51.500Z,4.63
2023-11-04T10:42:22.210Z,2.95
2023-11-04T10:44:57.649Z,2.83
2023-11-04T10:48:01.696Z,4.82
2023-11-04T10:50:45.420Z,3.92
2023-11-04T10:53:35.386Z,3.58
2023-11-04T10:56:09.532Z,2.97
2023-11-04T10:58:47.901Z,2.28
2023-11-04T11:01:16.397Z,5.43
2023-11-04T11:03:46.250Z,3.78
2023-11-04T11:06:15.443Z,5.50
2023-11-04T11:08:44.498Z,3.28
2023-11-04T11:11:23.705Z,1.80
2023-11-04T11:13:55.476Z,4.22
2023-11-04T11:16:24.317Z,4.40
2023-11-04T11:18:52.723Z,4.03
2023-11-04T11:21:21.268Z,4.40
2023-11-04T11:23:51.141Z,3.58
2023-11-04T11:26:19.901Z,4.22
2023-11-04T11:28:48.323Z,5.65
2023-11-04T11:31:30.711Z,5.25
2023-11-04T11:34:09.081Z,5.45
2023-11-04T11:36:37.872Z,4.13
2023-11-04T11:39:06.563Z,4.28
2023-11-04T11:44:08.697Z,3.60
2023-11-04T11:46:38.742Z,2.90
2023-11-04T11:49:07.615Z,3.75
2023-11-04T11:54:09.950Z,5.97
2023-11-04T11:56:40.553Z,5.93
2023-11-04T11:59:09.245Z,5.38
2023-11-04T12:01:38.332Z,6.60
2023-11-04T12:04:06.930Z,6.78
2023-11-04T12:09:04.103Z,6.95
2023-11-04T12:11:32.719Z,6.65
2023-11-04T12:14:02.478Z,5.88
2023-11-04T12:16:31.961Z,7.72
2023-11-04T12:19:01.105Z,8.20
2023-11-04T12:21:29.932Z,7.20
2023-11-04T12:26:34.166Z,6.35
2023-11-04T12:29:02.851Z,6.22
2023-11-04T12:31:31.821Z,7.55
2023-11-04T12:34:00.922Z,7.32
2023-11-04T12:36:29.649Z,7.95
2023-11-04T12:38:57.996Z,6.20
2023-11-04T12:43:55.817Z,5.28
2023-11-04T12:46:24.704Z,6.22
2023-11-04T12:48:53.406Z,4.82
2023-11-04T12:53:50.136Z,4.90
2023-11-04T12:58:47.011Z,6.75
2023-11-04T13:01:15.881Z,6.13
2023-11-04T13:03:44.799Z,10.68
2023-11-04T13:08:41.687Z,7.57
2023-11-04T13:11:10.126Z,7.05
2023-11-04T13:13:38.871Z,6.93
2023-11-04T13:16:08.146Z,8.88
2023-11-04T13:18:36.620Z,4.45
2023-11-04T13:23:33.911Z,5.00
2023-11-04T13:28:30.590Z,4.15
2023-11-04T13:30:59.323Z,7.55
2023-11-04T13:33:27.986Z,7.75
2023-11-04T13:35:56.631Z,4.95
2023-11-04T13:40:53.579Z,4.30
2023-11-04T13:43:22.228Z,3.78
2023-11-04T13:45:51.113Z,4.95
2023-11-04T13:50:48.494Z,4.97
2023-11-04T13:53:18.048Z,8.73
2023-11-04T13:55:49.257Z,5.50
2023-11-04T13:58:19.294Z,4.15
2023-11-04T14:00:48.885Z,6.28
2023-11-04T14:03:25.434Z,4.53
2023-11-04T14:05:54.928Z,5.93
2023-11-04T14:08:28.551Z,3.78
2023-11-04T14:10:57.328Z,4.95
2023-11-04T14:13:26.107Z,4.25
2023-11-04T14:15:54.818Z,3.45
2023-11-04T14:20:53.063Z,5.13
2023-11-04T14:25:50.240Z,3.10
2023-11-04T14:28:20.826Z,7.00
2023-11-04T14:30:49.549Z,10.60
2023-11-04T14:33:19.541Z,9.45
2023-11-04T14:35:49.022Z,12.63
2023-11-04T14:38:39.119Z,11.52
2023-11-04T14:41:12.052Z,10.05
2023-11-04T14:43:43.960Z,9.65
2023-11-04T14:46:18.461Z,8.27
2023-11-04T14:48:47.502Z,10.18
2023-11-04T14:51:17.728Z,8.15
2023-11-04T14:53:47.251Z,9.07
2023-11-04T14:56:16.337Z,8.02
2023-11-04T14:58:46.083Z,6.82
2023-11-04T15:01:19.333Z,7.50
2023-11-04T15:03:50.579Z,8.95
2023-11-04T15:06:30.948Z,8.88
2023-11-04T15:09:00.979Z,10.20
2023-11-04T15:11:31.823Z,7.55
2023-11-04T15:14:02.422Z,8.38
2023-11-04T15:16:32.538Z,7.10
2023-11-04T15:19:01.145Z,5.40
2023-11-04T15:21:31.515Z,8.50
2023-11-04T15:24:00.810Z,5.90
2023-11-04T15:26:30.065Z,6.15
2023-11-04T15:28:59.183Z,6.90
2023-11-04T15:31:27.800Z,5.70
2023-11-04T15:33:56.444Z,6.13
2023-11-04T15:39:01.176Z,5.90
2023-11-04T15:41:29.859Z,5.63
2023-11-04T15:43:58.532Z,5.18
2023-11-04T15:46:27.051Z,5.90
2023-11-04T15:48:58.775Z,5.95
2023-11-04T15:51:27.692Z,6.05
2023-11-04T15:53:56.395Z,4.35
2023-11-04T15:56:24.693Z,4.13
2023-11-04T15:58:53.418Z,4.32
2023-11-04T16:01:22.014Z,3.55
2023-11-04T16:06:19.067Z,4.60
2023-11-04T16:08:49.673Z,3.42
2023-11-04T16:11:21.446Z,3.33
2023-11-04T16:14:04.454Z,4.82
2023-11-04T16:16:33.295Z,4.32
2023-11-04T16:21:31.233Z,5.75
2023-11-04T16:24:00.506Z,3.63
2023-11-04T16:26:30.884Z,4.35
2023-11-04T16:29:01.882Z,4.40
2023-11-04T16:31:30.902Z,4.70
2023-11-04T16:33:59.635Z,5.75
2023-11-04T16:36:28.421Z,5.00
2023-11-04T16:41:26.138Z,4.75
2023-11-04T16:43:57.730Z,4.82
2023-11-04T16:46:26.504Z,5.05
2023-11-04T16:48:56.076Z,4.60
2023-11-04T16:51:25.227Z,5.30
2023-11-04T16:53:55.512Z,3.70
2023-11-04T16:58:52.352Z,3.88
2023-11-04T17:01:21.112Z,3.55
2023-11-04T17:03:50.308Z,2.83
2023-11-04T17:06:20.713Z,4.35
2023-11-04T17:08:49.782Z,5.55
2023-11-04T17:11:25.690Z,2.58
2023-11-04T17:13:57.436Z,3.17
2023-11-04T17:16:26.496Z,4.20
2023-11-04T17:21:23.335Z,4.00
2023-11-04T17:23:52.195Z,3.70
2023-11-04T17:26:21.016Z,4.93
2023-11-04T17:28:49.902Z,4.85
2023-11-04T17:33:46.825Z,3.42
2023-11-04T17:36:15.967Z,3.45
2023-11-04T17:38:47.516Z,5.75
2023-11-04T17:41:16.586Z,3.50
2023-11-04T17:43:45.445Z,4.40
2023-11-04T17:46:17.701Z,4.07
2023-11-04T17:48:46.503Z,4.72
2023-11-04T17:53:50.806Z,3.50
2023-11-04T17:56:20.625Z,4.00
2023-11-04T17:58:50.043Z,2.92
2023-11-04T18:01:19.134Z,5.35
2023-11-04T18:03:48.188Z,2.55
2023-11-04T18:06:23.844Z,3.17
2023-11-04T18:08:55.608Z,4.95
2023-11-04T18:11:24.699Z,2.95
2023-11-04T18:13:53.403Z,4.43
2023-11-04T18:16:22.677Z,5.00
2023-11-04T18:18:54.810Z,2.88
2023-11-04T18:21:23.459Z,5.53
2023-11-04T18:23:52.495Z,2.67
2023-11-04T18:26:21.483Z,2.72
2023-11-04T18:31:18.239Z,4.40
2023-11-04T18:36:15.604Z,2.30
2023-11-04T18:38:44.542Z,3.78
2023-11-04T18:41:15.729Z,2.10
2023-11-04T18:43:45.279Z,3.15
2023-11-04T18:46:14.270Z,3.13
2023-11-04T18:48:43.307Z,3.20
2023-11-04T18:51:18.534Z,3.70
2023-11-04T18:53:48.906Z,2.72
2023-11-04T18:56:18.456Z,6.20
2023-11-04T18:58:47.028Z,4.70
2023-11-04T19:01:25.502Z,3.40
2023-11-04T19:03:54.730Z,4.70
2023-11-04T19:06:23.446Z,4.13
2023-11-04T19:08:52.222Z,6.40
2023-11-04T19:11:21.404Z,4.22
2023-11-04T19:13:51.205Z,3.25
2023-11-04T19:16:19.999Z,4.05
2023-11-04T19:23:47.870Z,3.33
2023-11-04T19:26:18.920Z,3.30
2023-11-04T19:31:17.125Z,3.97
2023-11-04T19:33:47.294Z,3.67
2023-11-04T19:36:16.184Z,3.60
2023-11-04T19:38:44.670Z,6.10
2023-11-04T19:41:13.677Z,2.97
2023-11-04T19:43:42.218Z,2.22
2023-11-04T19:46:11.160Z,3.95
2023-11-04T19:48:40.121Z,3.22
2023-11-04T19:51:08.846Z,3.03
2023-11-04T19:53:37.741Z,4.50
2023-11-04T19:56:07.399Z,3.55
2023-11-04T19:58:36.706Z,2.83
2023-11-04T20:01:06.041Z,4.40
2023-11-04T20:03:34.515Z,2.50
2023-11-04T20:08:32.642Z,2.85
2023-11-04T20:11:01.746Z,3.42
2023-11-04T20:15:59.009Z,3.67
2023-11-04T20:18:28.024Z,2.65
2023-11-04T20:20:56.630Z,4.53
2023-11-04T20:23:25.450Z,4.07
2023-11-04T20:25:54.411Z,2.90
2023-11-04T20:28:23.146Z,3.10
2023-11-04T20:30:51.717Z,2.70
2023-11-04T20:33:21.849Z,5.28
2023-11-04T20:36:02.789Z,3.13
2023-11-04T20:38:33.113Z,5.72
2023-11-04T20:41:02.378Z,3.58
2023-11-04T20:43:31.154Z,5.90
2023-11-04T20:46:01.388Z,3.95
2023-11-04T20:48:30.880Z,5.00
2023-11-04T20:50:59.616Z,4.50
2023-11-04T20:53:28.887Z,4.05
2023-11-04T20:56:13.373Z,7.00
2023-11-04T20:58:42.546Z,3.90
2023-11-04T21:01:12.427Z,7.78
2023-11-04T21:03:42.616Z,6.65
2023-11-04T21:06:11.511Z,6.47
2023-11-04T21:11:09.106Z,4.13
2023-11-04T21:13:38.452Z,4.88
2023-11-04T21:16:24.367Z,5.63
2023-11-04T21:18:56.466Z,4.00
2023-11-04T21:21:26.496Z,2.85
2023-11-04T21:23:55.997Z,3.55
2023-11-04T21:26:27.779Z,3.40
2023-11-04T21:28:57.066Z,3.95
2023-11-04T21:31:27.496Z,5.32
2023-11-04T21:33:56.107Z,3.28
2023-11-04T21:36:25.020Z,3.33
2023-11-04T21:39:00.041Z,4.40
2023-11-04T21:41:28.921Z,4.47
2023-11-04T21:43:57.496Z,3.00
2023-11-04T21:46:29.893Z,2.83
2023-11-04T21:48:59.282Z,2.15
2023-11-04T21:51:28.181Z,2.92
2023-11-04T21:53:56.825Z,2.42
2023-11-04T21:56:25.447Z,2.97
2023-11-04T21:58:53.942Z,3.03
2023-11-04T22:01:24.282Z,3.85
2023-11-04T22:03:54.645Z,2.83
2023-11-04T22:06:23.434Z,2.10
2023-11-04T22:08:52.175Z,2.28
2023-11-04T22:13:49.418Z,2.55
2023-11-04T22:16:19.594Z,2.30
2023-11-04T22:18:48.380Z,2.25
2023-11-04T22:21:18.966Z,4.00
2023-11-04T22:23:48.663Z,4.30
2023-11-04T22:26:17.268Z,1.80
2023-11-04T22:31:14.708Z,2.17
2023-11-04T22:33:43.573Z,3.03
2023-11-04T22:36:12.499Z,3.33
2023-11-04T22:38:41.065Z,4.60
2023-11-04T22:41:09.712Z,3.67
2023-11-04T22:43:38.269Z,2.90
2023-11-04T22:48:38.905Z,2.33
2023-11-04T22:51:08.549Z,1.92
2023-11-04T22:53:38.057Z,1.65
2023-11-04T22:56:07.164Z,3.03
2023-11-04T22:58:35.864Z,2.75
2023-11-04T23:01:04.431Z,3.28
2023-11-04T23:03:33.269Z,1.73
2023-11-04T23:06:04.604Z,2.60
2023-11-04T23:08:33.815Z,3.60
2023-11-04T23:11:05.729Z,2.25
2023-11-04T23:13:34.968Z,3.50
2023-11-04T23:16:03.759Z,2.45
2023-11-04T23:18:32.285Z,2.70
2023-11-04T23:23:29.145Z,1.70
2023-11-04T23:25:57.838Z,3.22
2023-11-04T23:28:26.555Z,3.53
2023-11-04T23:30:55.751Z,2.45
2023-11-04T23:33:24.678Z,2.53
2023-11-04T23:35:53.274Z,2.70
2023-11-04T23:38:22.073Z,1.58
2023-11-04T23:40:50.848Z,3.20
2023-11-04T23:43:19.404Z,4.55
2023-11-04T23:48:16.840Z,3.42
2023-11-04T23:50:45.268Z,2.53
2023-11-04T23:53:13.751Z,3.47
2023-11-04T23:55:48.554Z,2.83
2023-11-04T23:58:17.176Z,2.20
